sensor_id;sensor_type;location;lat;lon;timestamp;temperature;humidity
21019;DHT22;10667;51.056;3.732;2024-02-26T00:01:26;8.20;99.90
21019;DHT22;10667;51.056;3.732;2024-02-26T00:03:51;8.20;99.90
21019;DHT22;10667;51.056;3.732;2024-02-26T00:06:18;8.30;99.90
21019;DHT22;10667;51.056;3.732;2024-02-26T00:08:44;8.20;99.90
21019;DHT22;10667;51.056;3.732;2024-02-26T00:11:10;8.30;99.90
21019;DHT22;10667;51.056;3.732;2024-02-26T00:13:36;8.30;99.90
21019;DHT22;10667;51.056;3.732;2024-02-26T00:16:03;8.20;99.90
21019;DHT22;10667;51.056;3.732;2024-02-26T00:18:29;8.00;99.90
21019;DHT22;10667;51.056;3.732;2024-02-26T00:20:54;7.90;99.90
21019;DHT22;10667;51.056;3.732;2024-02-26T00:23:20;7.80;99.90
21019;DHT22;10667;51.056;3.732;2024-02-26T00:25:46;7.80;99.90
21019;DHT22;10667;51.056;3.732;2024-02-26T00:28:11;7.70;99.90
21019;DHT22;10667;51.056;3.732;2024-02-26T00:30:38;7.70;99.90
21019;DHT22;10667;51.056;3.732;2024-02-26T00:33:04;7.70;99.90
21019;DHT22;10667;51.056;3.732;2024-02-26T00:35:30;7.60;99.90
21019;DHT22;10667;51.056;3.732;2024-02-26T00:37:55;7.60;99.90
21019;DHT22;10667;51.056;3.732;2024-02-26T00:40:21;7.50;99.90
21019;DHT22;10667;51.056;3.732;2024-02-26T00:42:47;7.50;99.90
21019;DHT22;10667;51.056;3.732;2024-02-26T00:45:13;7.50;99.90
21019;DHT22;10667;51.056;3.732;2024-02-26T00:47:39;7.50;99.90
21019;DHT22;10667;51.056;3.732;2024-02-26T00:50:10;7.50;99.90
21019;DHT22;10667;51.056;3.732;2024-02-26T00:52:35;7.40;99.90
21019;DHT22;10667;51.056;3.732;2024-02-26T00:55:02;7.30;99.90
21019;DHT22;10667;51.056;3.732;2024-02-26T00:57:28;7.40;99.90
21019;DHT22;10667;51.056;3.732;2024-02-26T00:59:53;7.40;99.90
21019;DHT22;10667;51.056;3.732;2024-02-26T01:02:21;7.30;99.90
21019;DHT22;10667;51.056;3.732;2024-02-26T01:04:47;7.40;99.90
21019;DHT22;10667;51.056;3.732;2024-02-26T01:07:13;7.30;99.90
21019;DHT22;10667;51.056;3.732;2024-02-26T01:09:39;7.30;99.90
21019;DHT22;10667;51.056;3.732;2024-02-26T01:12:05;7.30;99.90
21019;DHT22;10667;51.056;3.732;2024-02-26T01:14:31;7.30;99.90
21019;DHT22;10667;51.056;3.732;2024-02-26T01:16:56;7.30;99.90
21019;DHT22;10667;51.056;3.732;2024-02-26T01:19:22;7.30;99.90
21019;DHT22;10667;51.056;3.732;2024-02-26T01:21:48;7.30;99.90
21019;DHT22;10667;51.056;3.732;2024-02-26T01:24:13;7.30;99.90
21019;DHT22;10667;51.056;3.732;2024-02-26T01:26:39;7.30;99.90
21019;DHT22;10667;51.056;3.732;2024-02-26T01:29:04;7.30;99.90
21019;DHT22;10667;51.056;3.732;2024-02-26T01:31:30;7.30;99.90
21019;DHT22;10667;51.056;3.732;2024-02-26T01:33:56;7.30;99.90
21019;DHT22;10667;51.056;3.732;2024-02-26T01:36:21;7.30;99.90
21019;DHT22;10667;51.056;3.732;2024-02-26T01:38:47;7.30;99.90
21019;DHT22;10667;51.056;3.732;2024-02-26T01:41:16;7.30;99.90
21019;DHT22;10667;51.056;3.732;2024-02-26T01:43:42;7.30;99.90
21019;DHT22;10667;51.056;3.732;2024-02-26T01:46:13;7.20;99.90
21019;DHT22;10667;51.056;3.732;2024-02-26T01:48:41;7.20;99.90
21019;DHT22;10667;51.056;3.732;2024-02-26T01:51:08;7.20;99.90
21019;DHT22;10667;51.056;3.732;2024-02-26T01:53:34;7.20;99.90
21019;DHT22;10667;51.056;3.732;2024-02-26T01:56:00;7.20;99.90
21019;DHT22;10667;51.056;3.732;2024-02-26T01:58:25;7.10;99.90
21019;DHT22;10667;51.056;3.732;2024-02-26T02:00:51;7.10;99.90
21019;DHT22;10667;51.056;3.732;2024-02-26T02:03:17;7.10;99.90
21019;DHT22;10667;51.056;3.732;2024-02-26T02:05:42;7.10;99.90
21019;DHT22;10667;51.056;3.732;2024-02-26T02:08:10;7.10;99.90
21019;DHT22;10667;51.056;3.732;2024-02-26T02:10:44;7.10;99.90
21019;DHT22;10667;51.056;3.732;2024-02-26T02:13:09;7.10;99.90
21019;DHT22;10667;51.056;3.732;2024-02-26T02:15:35;7.00;99.90
21019;DHT22;10667;51.056;3.732;2024-02-26T02:18:01;7.00;99.90
21019;DHT22;10667;51.056;3.732;2024-02-26T02:20:35;7.00;99.90
21019;DHT22;10667;51.056;3.732;2024-02-26T02:23:01;7.00;99.90
21019;DHT22;10667;51.056;3.732;2024-02-26T02:25:27;7.00;99.90
21019;DHT22;10667;51.056;3.732;2024-02-26T02:27:54;7.00;99.90
21019;DHT22;10667;51.056;3.732;2024-02-26T02:30:29;7.00;99.90
21019;DHT22;10667;51.056;3.732;2024-02-26T02:32:55;6.90;99.90
21019;DHT22;10667;51.056;3.732;2024-02-26T02:35:23;6.90;99.90
21019;DHT22;10667;51.056;3.732;2024-02-26T02:37:51;6.80;99.90
21019;DHT22;10667;51.056;3.732;2024-02-26T02:40:17;6.80;99.90
21019;DHT22;10667;51.056;3.732;2024-02-26T02:42:42;6.90;99.90
21019;DHT22;10667;51.056;3.732;2024-02-26T02:45:08;6.80;99.90
21019;DHT22;10667;51.056;3.732;2024-02-26T02:47:37;6.80;99.90
21019;DHT22;10667;51.056;3.732;2024-02-26T02:50:06;6.80;99.90
21019;DHT22;10667;51.056;3.732;2024-02-26T02:52:31;6.80;99.90
21019;DHT22;10667;51.056;3.732;2024-02-26T02:54:58;6.70;99.90
21019;DHT22;10667;51.056;3.732;2024-02-26T02:57:23;6.70;99.90
21019;DHT22;10667;51.056;3.732;2024-02-26T02:59:49;6.70;99.90
21019;DHT22;10667;51.056;3.732;2024-02-26T03:02:15;6.70;99.90
21019;DHT22;10667;51.056;3.732;2024-02-26T03:04:40;6.70;99.90
21019;DHT22;10667;51.056;3.732;2024-02-26T03:07:06;6.70;99.90
21019;DHT22;10667;51.056;3.732;2024-02-26T03:09:32;6.60;99.90
21019;DHT22;10667;51.056;3.732;2024-02-26T03:11:57;6.60;99.90
21019;DHT22;10667;51.056;3.732;2024-02-26T03:14:23;6.60;99.90
21019;DHT22;10667;51.056;3.732;2024-02-26T03:16:49;6.60;99.90
21019;DHT22;10667;51.056;3.732;2024-02-26T03:19:15;6.60;99.90
21019;DHT22;10667;51.056;3.732;2024-02-26T03:21:44;6.50;99.90
21019;DHT22;10667;51.056;3.732;2024-02-26T03:24:09;6.50;99.90
21019;DHT22;10667;51.056;3.732;2024-02-26T03:26:38;6.50;99.90
21019;DHT22;10667;51.056;3.732;2024-02-26T03:29:04;6.50;99.90
21019;DHT22;10667;51.056;3.732;2024-02-26T03:31:30;6.40;99.90
21019;DHT22;10667;51.056;3.732;2024-02-26T03:33:56;6.40;99.90
21019;DHT22;10667;51.056;3.732;2024-02-26T03:36:22;6.40;99.90
21019;DHT22;10667;51.056;3.732;2024-02-26T03:38:48;6.40;99.90
21019;DHT22;10667;51.056;3.732;2024-02-26T03:41:14;6.40;99.90
21019;DHT22;10667;51.056;3.732;2024-02-26T03:43:39;6.30;99.90
21019;DHT22;10667;51.056;3.732;2024-02-26T03:46:08;6.30;99.90
21019;DHT22;10667;51.056;3.732;2024-02-26T03:48:35;6.30;99.90
21019;DHT22;10667;51.056;3.732;2024-02-26T03:51:00;6.30;99.90
21019;DHT22;10667;51.056;3.732;2024-02-26T03:53:26;6.30;99.90
21019;DHT22;10667;51.056;3.732;2024-02-26T03:55:53;6.30;99.90
21019;DHT22;10667;51.056;3.732;2024-02-26T03:58:20;6.30;99.90
21019;DHT22;10667;51.056;3.732;2024-02-26T04:00:46;6.30;99.90
21019;DHT22;10667;51.056;3.732;2024-02-26T04:03:13;6.30;99.90
21019;DHT22;10667;51.056;3.732;2024-02-26T04:05:39;6.30;99.90
21019;DHT22;10667;51.056;3.732;2024-02-26T04:08:05;6.30;99.90
21019;DHT22;10667;51.056;3.732;2024-02-26T04:10:33;6.30;99.90
21019;DHT22;10667;51.056;3.732;2024-02-26T04:13:00;6.20;99.90
21019;DHT22;10667;51.056;3.732;2024-02-26T04:15:26;6.30;99.90
21019;DHT22;10667;51.056;3.732;2024-02-26T04:17:52;6.20;99.90
21019;DHT22;10667;51.056;3.732;2024-02-26T04:20:17;6.30;99.90
21019;DHT22;10667;51.056;3.732;2024-02-26T04:22:43;6.30;99.90
21019;DHT22;10667;51.056;3.732;2024-02-26T04:25:09;6.30;99.90
21019;DHT22;10667;51.056;3.732;2024-02-26T04:27:35;6.30;99.90
21019;DHT22;10667;51.056;3.732;2024-02-26T04:30:00;6.30;99.90
21019;DHT22;10667;51.056;3.732;2024-02-26T04:32:26;6.30;99.90
21019;DHT22;10667;51.056;3.732;2024-02-26T04:34:53;6.30;99.90
21019;DHT22;10667;51.056;3.732;2024-02-26T04:37:19;6.30;99.90
21019;DHT22;10667;51.056;3.732;2024-02-26T04:39:44;6.30;99.90
21019;DHT22;10667;51.056;3.732;2024-02-26T04:42:11;6.30;99.90
21019;DHT22;10667;51.056;3.732;2024-02-26T04:44:36;6.30;99.90
21019;DHT22;10667;51.056;3.732;2024-02-26T04:47:02;6.30;99.90
21019;DHT22;10667;51.056;3.732;2024-02-26T04:49:28;6.30;99.90
21019;DHT22;10667;51.056;3.732;2024-02-26T04:51:53;6.30;99.90
21019;DHT22;10667;51.056;3.732;2024-02-26T04:54:19;6.30;99.90
21019;DHT22;10667;51.056;3.732;2024-02-26T04:56:45;6.40;99.90
21019;DHT22;10667;51.056;3.732;2024-02-26T04:59:10;6.30;99.90
21019;DHT22;10667;51.056;3.732;2024-02-26T05:01:36;6.30;99.90
21019;DHT22;10667;51.056;3.732;2024-02-26T05:04:02;6.30;99.90
21019;DHT22;10667;51.056;3.732;2024-02-26T05:06:28;6.30;99.90
21019;DHT22;10667;51.056;3.732;2024-02-26T05:08:54;6.30;99.90
21019;DHT22;10667;51.056;3.732;2024-02-26T05:11:20;6.30;99.90
21019;DHT22;10667;51.056;3.732;2024-02-26T05:13:47;6.30;99.90
21019;DHT22;10667;51.056;3.732;2024-02-26T05:16:12;6.30;99.90
21019;DHT22;10667;51.056;3.732;2024-02-26T05:18:38;6.30;99.90
21019;DHT22;10667;51.056;3.732;2024-02-26T05:21:04;6.30;99.90
21019;DHT22;10667;51.056;3.732;2024-02-26T05:23:29;6.30;99.90
21019;DHT22;10667;51.056;3.732;2024-02-26T05:25:55;6.30;99.90
21019;DHT22;10667;51.056;3.732;2024-02-26T05:28:21;6.30;99.90
21019;DHT22;10667;51.056;3.732;2024-02-26T05:30:47;6.20;99.90
21019;DHT22;10667;51.056;3.732;2024-02-26T05:33:12;6.20;99.90
21019;DHT22;10667;51.056;3.732;2024-02-26T05:35:38;6.20;99.90
21019;DHT22;10667;51.056;3.732;2024-02-26T05:38:05;6.20;99.90
21019;DHT22;10667;51.056;3.732;2024-02-26T05:40:31;6.20;99.90
21019;DHT22;10667;51.056;3.732;2024-02-26T05:42:57;6.20;99.90
21019;DHT22;10667;51.056;3.732;2024-02-26T05:45:22;6.20;99.90
21019;DHT22;10667;51.056;3.732;2024-02-26T05:47:48;6.20;99.90
21019;DHT22;10667;51.056;3.732;2024-02-26T05:50:15;6.20;99.90
21019;DHT22;10667;51.056;3.732;2024-02-26T05:52:41;6.20;99.90
21019;DHT22;10667;51.056;3.732;2024-02-26T05:55:07;6.20;99.90
21019;DHT22;10667;51.056;3.732;2024-02-26T05:57:34;6.20;99.90
21019;DHT22;10667;51.056;3.732;2024-02-26T05:59:59;6.20;99.90
21019;DHT22;10667;51.056;3.732;2024-02-26T06:02:29;6.20;99.90
21019;DHT22;10667;51.056;3.732;2024-02-26T06:04:55;6.20;99.90
21019;DHT22;10667;51.056;3.732;2024-02-26T06:07:20;6.10;99.90
21019;DHT22;10667;51.056;3.732;2024-02-26T06:09:46;6.20;99.90
21019;DHT22;10667;51.056;3.732;2024-02-26T06:12:12;6.10;99.90
21019;DHT22;10667;51.056;3.732;2024-02-26T06:14:37;6.10;99.90
21019;DHT22;10667;51.056;3.732;2024-02-26T06:17:03;6.10;99.90
21019;DHT22;10667;51.056;3.732;2024-02-26T06:19:29;6.10;99.90
21019;DHT22;10667;51.056;3.732;2024-02-26T06:21:54;6.10;99.90
21019;DHT22;10667;51.056;3.732;2024-02-26T06:24:20;6.10;99.90
21019;DHT22;10667;51.056;3.732;2024-02-26T06:26:47;6.10;99.90
21019;DHT22;10667;51.056;3.732;2024-02-26T06:29:14;6.10;99.90
21019;DHT22;10667;51.056;3.732;2024-02-26T06:31:39;6.10;99.90
21019;DHT22;10667;51.056;3.732;2024-02-26T06:34:05;6.10;99.90
21019;DHT22;10667;51.056;3.732;2024-02-26T06:36:31;6.10;99.90
21019;DHT22;10667;51.056;3.732;2024-02-26T06:38:57;6.10;99.90
21019;DHT22;10667;51.056;3.732;2024-02-26T06:41:23;6.20;99.90
21019;DHT22;10667;51.056;3.732;2024-02-26T06:43:53;6.10;99.90
21019;DHT22;10667;51.056;3.732;2024-02-26T06:46:19;6.10;99.90
21019;DHT22;10667;51.056;3.732;2024-02-26T06:48:45;6.10;99.90
21019;DHT22;10667;51.056;3.732;2024-02-26T06:51:10;6.10;99.90
21019;DHT22;10667;51.056;3.732;2024-02-26T06:53:36;6.10;99.90
21019;DHT22;10667;51.056;3.732;2024-02-26T06:56:02;6.10;99.90
21019;DHT22;10667;51.056;3.732;2024-02-26T06:58:27;6.10;99.90
21019;DHT22;10667;51.056;3.732;2024-02-26T07:00:53;6.10;99.90
21019;DHT22;10667;51.056;3.732;2024-02-26T07:03:19;6.10;99.90
21019;DHT22;10667;51.056;3.732;2024-02-26T07:05:44;6.10;99.90
21019;DHT22;10667;51.056;3.732;2024-02-26T07:08:11;6.10;99.90
21019;DHT22;10667;51.056;3.732;2024-02-26T07:10:37;6.10;99.90
21019;DHT22;10667;51.056;3.732;2024-02-26T07:13:02;6.10;99.90
21019;DHT22;10667;51.056;3.732;2024-02-26T07:15:29;6.10;99.90
21019;DHT22;10667;51.056;3.732;2024-02-26T07:17:54;6.10;99.90
21019;DHT22;10667;51.056;3.732;2024-02-26T07:20:20;6.10;99.90
21019;DHT22;10667;51.056;3.732;2024-02-26T07:22:45;6.10;99.90
21019;DHT22;10667;51.056;3.732;2024-02-26T07:25:11;6.10;99.90
21019;DHT22;10667;51.056;3.732;2024-02-26T07:27:39;6.10;99.90
21019;DHT22;10667;51.056;3.732;2024-02-26T07:30:06;6.10;99.90
21019;DHT22;10667;51.056;3.732;2024-02-26T07:32:33;6.10;99.90
21019;DHT22;10667;51.056;3.732;2024-02-26T07:34:59;6.20;99.90
21019;DHT22;10667;51.056;3.732;2024-02-26T07:37:24;6.20;99.90
21019;DHT22;10667;51.056;3.732;2024-02-26T07:39:50;6.20;99.90
21019;DHT22;10667;51.056;3.732;2024-02-26T07:42:16;6.20;99.90
21019;DHT22;10667;51.056;3.732;2024-02-26T07:44:41;6.20;99.90
21019;DHT22;10667;51.056;3.732;2024-02-26T07:47:09;6.20;99.90
21019;DHT22;10667;51.056;3.732;2024-02-26T07:49:35;6.20;99.90
21019;DHT22;10667;51.056;3.732;2024-02-26T07:52:00;6.10;99.90
21019;DHT22;10667;51.056;3.732;2024-02-26T07:54:26;6.20;99.90
21019;DHT22;10667;51.056;3.732;2024-02-26T07:56:51;6.10;99.90
21019;DHT22;10667;51.056;3.732;2024-02-26T07:59:17;6.10;99.90
21019;DHT22;10667;51.056;3.732;2024-02-26T08:01:43;6.10;99.90
21019;DHT22;10667;51.056;3.732;2024-02-26T08:04:09;6.10;99.90
21019;DHT22;10667;51.056;3.732;2024-02-26T08:06:34;6.10;99.90
21019;DHT22;10667;51.056;3.732;2024-02-26T08:09:00;6.10;99.90
21019;DHT22;10667;51.056;3.732;2024-02-26T08:11:26;6.10;99.90
21019;DHT22;10667;51.056;3.732;2024-02-26T08:13:53;6.10;99.90
21019;DHT22;10667;51.056;3.732;2024-02-26T08:16:19;6.10;99.90
21019;DHT22;10667;51.056;3.732;2024-02-26T08:18:44;6.10;99.90
21019;DHT22;10667;51.056;3.732;2024-02-26T08:21:10;6.10;99.90
21019;DHT22;10667;51.056;3.732;2024-02-26T08:23:36;6.10;99.90
21019;DHT22;10667;51.056;3.732;2024-02-26T08:26:01;6.10;99.90
21019;DHT22;10667;51.056;3.732;2024-02-26T08:28:29;6.10;99.90
21019;DHT22;10667;51.056;3.732;2024-02-26T08:30:54;6.10;99.90
21019;DHT22;10667;51.056;3.732;2024-02-26T08:33:20;6.00;99.90
21019;DHT22;10667;51.056;3.732;2024-02-26T08:35:46;6.00;99.90
21019;DHT22;10667;51.056;3.732;2024-02-26T08:38:11;6.00;99.90
21019;DHT22;10667;51.056;3.732;2024-02-26T08:40:37;6.00;99.90
21019;DHT22;10667;51.056;3.732;2024-02-26T08:43:03;6.00;99.90
21019;DHT22;10667;51.056;3.732;2024-02-26T08:45:28;6.00;99.90
21019;DHT22;10667;51.056;3.732;2024-02-26T08:47:54;6.00;99.90
21019;DHT22;10667;51.056;3.732;2024-02-26T08:50:19;6.00;99.90
21019;DHT22;10667;51.056;3.732;2024-02-26T08:52:45;5.90;99.90
21019;DHT22;10667;51.056;3.732;2024-02-26T08:55:14;5.90;99.90
21019;DHT22;10667;51.056;3.732;2024-02-26T08:57:39;5.90;99.90
21019;DHT22;10667;51.056;3.732;2024-02-26T09:00:06;5.90;99.90
21019;DHT22;10667;51.056;3.732;2024-02-26T09:02:32;5.90;99.90
21019;DHT22;10667;51.056;3.732;2024-02-26T09:04:58;5.90;99.90
21019;DHT22;10667;51.056;3.732;2024-02-26T09:07:23;5.80;99.90
21019;DHT22;10667;51.056;3.732;2024-02-26T09:09:49;5.90;99.90
21019;DHT22;10667;51.056;3.732;2024-02-26T09:12:15;5.80;99.90
21019;DHT22;10667;51.056;3.732;2024-02-26T09:14:40;5.80;99.90
21019;DHT22;10667;51.056;3.732;2024-02-26T09:17:06;5.80;99.90
21019;DHT22;10667;51.056;3.732;2024-02-26T09:19:33;5.80;99.90
21019;DHT22;10667;51.056;3.732;2024-02-26T09:21:58;5.80;99.90
21019;DHT22;10667;51.056;3.732;2024-02-26T09:24:24;5.80;99.90
21019;DHT22;10667;51.056;3.732;2024-02-26T09:26:50;5.80;99.90
21019;DHT22;10667;51.056;3.732;2024-02-26T09:29:16;5.70;99.90
21019;DHT22;10667;51.056;3.732;2024-02-26T09:31:42;5.70;99.90
21019;DHT22;10667;51.056;3.732;2024-02-26T09:34:08;5.70;99.90
21019;DHT22;10667;51.056;3.732;2024-02-26T09:36:34;5.70;99.90
21019;DHT22;10667;51.056;3.732;2024-02-26T09:38:59;5.70;99.90
21019;DHT22;10667;51.056;3.732;2024-02-26T09:41:28;5.70;99.90
21019;DHT22;10667;51.056;3.732;2024-02-26T09:43:56;5.70;99.90
21019;DHT22;10667;51.056;3.732;2024-02-26T09:46:23;5.70;99.90
21019;DHT22;10667;51.056;3.732;2024-02-26T09:48:49;5.70;99.90
21019;DHT22;10667;51.056;3.732;2024-02-26T09:51:16;5.70;99.90
21019;DHT22;10667;51.056;3.732;2024-02-26T09:53:44;5.70;99.90
21019;DHT22;10667;51.056;3.732;2024-02-26T09:56:12;5.70;99.90
21019;DHT22;10667;51.056;3.732;2024-02-26T09:58:39;5.70;99.90
21019;DHT22;10667;51.056;3.732;2024-02-26T10:01:13;5.70;99.90
21019;DHT22;10667;51.056;3.732;2024-02-26T10:03:42;5.70;99.90
21019;DHT22;10667;51.056;3.732;2024-02-26T10:06:10;5.70;99.90
21019;DHT22;10667;51.056;3.732;2024-02-26T10:08:36;5.70;99.90
21019;DHT22;10667;51.056;3.732;2024-02-26T10:11:07;5.70;99.90
21019;DHT22;10667;51.056;3.732;2024-02-26T10:13:34;5.70;99.90
21019;DHT22;10667;51.056;3.732;2024-02-26T10:16:01;5.70;99.90
21019;DHT22;10667;51.056;3.732;2024-02-26T10:18:45;5.70;99.90
21019;DHT22;10667;51.056;3.732;2024-02-26T10:21:11;5.70;99.90
21019;DHT22;10667;51.056;3.732;2024-02-26T10:23:37;5.70;99.90
21019;DHT22;10667;51.056;3.732;2024-02-26T10:26:03;5.70;99.90
21019;DHT22;10667;51.056;3.732;2024-02-26T10:28:30;5.70;99.90
21019;DHT22;10667;51.056;3.732;2024-02-26T10:30:55;5.70;99.90
21019;DHT22;10667;51.056;3.732;2024-02-26T10:33:22;5.70;99.90
21019;DHT22;10667;51.056;3.732;2024-02-26T10:35:48;5.70;99.90
21019;DHT22;10667;51.056;3.732;2024-02-26T10:38:14;5.70;99.90
21019;DHT22;10667;51.056;3.732;2024-02-26T10:40:42;5.70;99.90
21019;DHT22;10667;51.056;3.732;2024-02-26T10:43:08;5.70;99.90
21019;DHT22;10667;51.056;3.732;2024-02-26T10:45:33;5.70;99.90
21019;DHT22;10667;51.056;3.732;2024-02-26T10:48:00;5.70;99.90
21019;DHT22;10667;51.056;3.732;2024-02-26T10:50:26;5.70;99.90
21019;DHT22;10667;51.056;3.732;2024-02-26T10:52:52;5.70;99.90
21019;DHT22;10667;51.056;3.732;2024-02-26T10:55:18;5.70;99.90
21019;DHT22;10667;51.056;3.732;2024-02-26T10:57:45;5.70;99.90
21019;DHT22;10667;51.056;3.732;2024-02-26T11:00:14;5.80;99.90
21019;DHT22;10667;51.056;3.732;2024-02-26T11:02:41;5.80;99.90
21019;DHT22;10667;51.056;3.732;2024-02-26T11:05:07;5.80;99.90
21019;DHT22;10667;51.056;3.732;2024-02-26T11:07:36;5.80;99.90
21019;DHT22;10667;51.056;3.732;2024-02-26T11:10:04;5.80;99.90
21019;DHT22;10667;51.056;3.732;2024-02-26T11:12:32;5.80;99.90
21019;DHT22;10667;51.056;3.732;2024-02-26T11:14:58;5.80;99.90
21019;DHT22;10667;51.056;3.732;2024-02-26T11:17:28;5.80;99.90
21019;DHT22;10667;51.056;3.732;2024-02-26T11:19:58;5.80;99.90
21019;DHT22;10667;51.056;3.732;2024-02-26T11:22:26;5.80;99.90
21019;DHT22;10667;51.056;3.732;2024-02-26T11:24:56;5.80;99.90
21019;DHT22;10667;51.056;3.732;2024-02-26T11:27:39;5.80;99.90
21019;DHT22;10667;51.056;3.732;2024-02-26T11:30:10;5.80;99.90
21019;DHT22;10667;51.056;3.732;2024-02-26T11:32:36;5.90;99.90
21019;DHT22;10667;51.056;3.732;2024-02-26T11:35:04;5.80;99.90
21019;DHT22;10667;51.056;3.732;2024-02-26T11:37:32;5.80;99.90
21019;DHT22;10667;51.056;3.732;2024-02-26T11:39:59;5.90;99.90
21019;DHT22;10667;51.056;3.732;2024-02-26T11:42:26;5.90;99.90
21019;DHT22;10667;51.056;3.732;2024-02-26T11:44:54;5.90;99.90
21019;DHT22;10667;51.056;3.732;2024-02-26T11:47:22;5.90;99.90
21019;DHT22;10667;51.056;3.732;2024-02-26T11:49:49;5.90;99.90
21019;DHT22;10667;51.056;3.732;2024-02-26T11:52:15;5.90;99.90
21019;DHT22;10667;51.056;3.732;2024-02-26T11:54:52;5.90;99.90
21019;DHT22;10667;51.056;3.732;2024-02-26T11:57:27;5.90;99.90
21019;DHT22;10667;51.056;3.732;2024-02-26T11:59:55;5.90;99.90
21019;DHT22;10667;51.056;3.732;2024-02-26T12:07:43;5.90;99.90
21019;DHT22;10667;51.056;3.732;2024-02-26T12:10:28;5.90;99.90
21019;DHT22;10667;51.056;3.732;2024-02-26T12:13:02;5.90;99.90
21019;DHT22;10667;51.056;3.732;2024-02-26T12:15:36;5.90;99.90
21019;DHT22;10667;51.056;3.732;2024-02-26T12:18:05;5.80;99.90
21019;DHT22;10667;51.056;3.732;2024-02-26T12:20:31;5.80;99.90
21019;DHT22;10667;51.056;3.732;2024-02-26T12:22:57;5.90;99.90
21019;DHT22;10667;51.056;3.732;2024-02-26T12:25:28;5.80;99.90
21019;DHT22;10667;51.056;3.732;2024-02-26T12:27:55;5.90;99.90
21019;DHT22;10667;51.056;3.732;2024-02-26T12:30:21;5.90;99.90
21019;DHT22;10667;51.056;3.732;2024-02-26T12:32:48;5.90;99.90
21019;DHT22;10667;51.056;3.732;2024-02-26T12:35:14;5.90;99.90
21019;DHT22;10667;51.056;3.732;2024-02-26T12:37:41;5.80;99.90
21019;DHT22;10667;51.056;3.732;2024-02-26T12:40:08;5.80;99.90
21019;DHT22;10667;51.056;3.732;2024-02-26T12:42:35;5.80;99.90
21019;DHT22;10667;51.056;3.732;2024-02-26T12:45:09;5.80;99.90
21019;DHT22;10667;51.056;3.732;2024-02-26T12:47:45;5.80;99.90
21019;DHT22;10667;51.056;3.732;2024-02-26T12:50:17;5.80;99.90
21019;DHT22;10667;51.056;3.732;2024-02-26T12:52:47;5.80;99.90
21019;DHT22;10667;51.056;3.732;2024-02-26T12:55:20;5.90;99.90
21019;DHT22;10667;51.056;3.732;2024-02-26T12:57:46;5.90;99.90
21019;DHT22;10667;51.056;3.732;2024-02-26T13:00:18;5.90;99.90
21019;DHT22;10667;51.056;3.732;2024-02-26T13:02:44;5.90;99.90
21019;DHT22;10667;51.056;3.732;2024-02-26T13:05:12;5.80;99.90
21019;DHT22;10667;51.056;3.732;2024-02-26T13:07:45;5.90;99.90
21019;DHT22;10667;51.056;3.732;2024-02-26T13:10:14;5.90;99.90
21019;DHT22;10667;51.056;3.732;2024-02-26T13:12:47;5.90;99.90
21019;DHT22;10667;51.056;3.732;2024-02-26T13:15:17;5.90;99.90
21019;DHT22;10667;51.056;3.732;2024-02-26T13:17:45;5.90;99.90
21019;DHT22;10667;51.056;3.732;2024-02-26T13:20:12;5.90;99.90
21019;DHT22;10667;51.056;3.732;2024-02-26T13:22:38;5.90;99.90
21019;DHT22;10667;51.056;3.732;2024-02-26T13:25:04;5.90;99.90
21019;DHT22;10667;51.056;3.732;2024-02-26T13:27:33;5.90;99.90
21019;DHT22;10667;51.056;3.732;2024-02-26T13:30:08;6.00;99.90
21019;DHT22;10667;51.056;3.732;2024-02-26T13:32:39;6.00;99.90
21019;DHT22;10667;51.056;3.732;2024-02-26T13:35:06;6.00;99.90
21019;DHT22;10667;51.056;3.732;2024-02-26T13:37:33;5.90;99.90
21019;DHT22;10667;51.056;3.732;2024-02-26T13:39:59;6.00;99.90
21019;DHT22;10667;51.056;3.732;2024-02-26T13:42:24;5.90;99.90
21019;DHT22;10667;51.056;3.732;2024-02-26T13:44:50;6.00;99.90
21019;DHT22;10667;51.056;3.732;2024-02-26T13:47:16;6.00;99.90
21019;DHT22;10667;51.056;3.732;2024-02-26T13:49:41;6.00;99.90
21019;DHT22;10667;51.056;3.732;2024-02-26T13:52:07;6.00;99.90
21019;DHT22;10667;51.056;3.732;2024-02-26T13:54:33;6.00;99.90
21019;DHT22;10667;51.056;3.732;2024-02-26T13:56:59;6.00;99.90
21019;DHT22;10667;51.056;3.732;2024-02-26T13:59:25;6.00;99.90
21019;DHT22;10667;51.056;3.732;2024-02-26T14:01:50;6.00;99.90
21019;DHT22;10667;51.056;3.732;2024-02-26T14:04:18;6.00;99.90
21019;DHT22;10667;51.056;3.732;2024-02-26T14:06:44;6.00;99.90
21019;DHT22;10667;51.056;3.732;2024-02-26T14:09:09;6.00;99.90
21019;DHT22;10667;51.056;3.732;2024-02-26T14:11:35;6.00;99.90
21019;DHT22;10667;51.056;3.732;2024-02-26T14:14:01;6.00;99.90
21019;DHT22;10667;51.056;3.732;2024-02-26T14:16:27;6.00;99.90
21019;DHT22;10667;51.056;3.732;2024-02-26T14:18:53;6.10;99.90
21019;DHT22;10667;51.056;3.732;2024-02-26T14:21:18;6.00;99.90
21019;DHT22;10667;51.056;3.732;2024-02-26T14:23:44;6.00;99.90
21019;DHT22;10667;51.056;3.732;2024-02-26T14:26:10;6.00;99.90
21019;DHT22;10667;51.056;3.732;2024-02-26T14:28:36;6.10;99.90
21019;DHT22;10667;51.056;3.732;2024-02-26T14:31:01;6.00;99.90
21019;DHT22;10667;51.056;3.732;2024-02-26T14:33:28;6.00;99.90
21019;DHT22;10667;51.056;3.732;2024-02-26T14:35:53;6.10;99.90
21019;DHT22;10667;51.056;3.732;2024-02-26T14:38:19;6.10;99.90
21019;DHT22;10667;51.056;3.732;2024-02-26T14:40:44;6.10;99.90
21019;DHT22;10667;51.056;3.732;2024-02-26T14:43:11;6.10;99.90
21019;DHT22;10667;51.056;3.732;2024-02-26T14:45:36;6.10;99.90
21019;DHT22;10667;51.056;3.732;2024-02-26T14:48:03;6.10;99.90
21019;DHT22;10667;51.056;3.732;2024-02-26T14:50:29;6.20;99.90
21019;DHT22;10667;51.056;3.732;2024-02-26T14:52:55;6.10;99.90
21019;DHT22;10667;51.056;3.732;2024-02-26T14:55:20;6.10;99.90
21019;DHT22;10667;51.056;3.732;2024-02-26T14:57:47;6.10;99.90
21019;DHT22;10667;51.056;3.732;2024-02-26T15:00:12;6.10;99.90
21019;DHT22;10667;51.056;3.732;2024-02-26T15:02:38;6.10;99.90
21019;DHT22;10667;51.056;3.732;2024-02-26T15:05:04;6.10;99.90
21019;DHT22;10667;51.056;3.732;2024-02-26T15:07:30;6.10;99.90
21019;DHT22;10667;51.056;3.732;2024-02-26T15:09:55;6.10;99.90
21019;DHT22;10667;51.056;3.732;2024-02-26T15:12:24;6.10;99.90
21019;DHT22;10667;51.056;3.732;2024-02-26T15:14:50;6.10;99.90
21019;DHT22;10667;51.056;3.732;2024-02-26T15:17:15;6.10;99.90
21019;DHT22;10667;51.056;3.732;2024-02-26T15:19:41;6.10;99.90
21019;DHT22;10667;51.056;3.732;2024-02-26T15:22:07;6.10;99.90
21019;DHT22;10667;51.056;3.732;2024-02-26T15:24:32;6.10;99.90
21019;DHT22;10667;51.056;3.732;2024-02-26T15:26:58;6.10;99.90
21019;DHT22;10667;51.056;3.732;2024-02-26T15:29:24;6.10;99.90
21019;DHT22;10667;51.056;3.732;2024-02-26T15:31:49;6.10;99.90
21019;DHT22;10667;51.056;3.732;2024-02-26T15:34:15;6.10;99.90
21019;DHT22;10667;51.056;3.732;2024-02-26T15:36:41;6.10;99.90
21019;DHT22;10667;51.056;3.732;2024-02-26T15:39:06;6.10;99.90
21019;DHT22;10667;51.056;3.732;2024-02-26T15:41:32;6.10;99.90
21019;DHT22;10667;51.056;3.732;2024-02-26T15:43:58;6.10;99.90
21019;DHT22;10667;51.056;3.732;2024-02-26T15:46:25;6.10;99.90